« Back
NWS Peachtree City, Ga » Text Product » CSG Terminal Aerodrome Forecast


Printer-friendly Version
Current Version              Previous Versions:   1  2  3  4  5  6  7  8  9  

Terminal Aerodrome Forecast

648
FTUS42 KFFC 281120
TAFCSG
TAF
KCSG 281120Z 2812/2912 08004KT P6SM SKC
     FM281400 10007KT P6SM SCT040
     FM281900 11010KT P6SM FEW060
     FM290100 09003KT P6SM SCT250=

USA.gov is the U.S. government's official web portal to all federal, state and local government web resources and services.